createdAt,value
2024-04-23T00:00:48.807Z,49.61
2024-04-23T00:03:41.581Z,49.54
2024-04-23T00:06:14.382Z,49.67
2024-04-23T00:08:47.125Z,49.70
2024-04-23T00:11:20.461Z,49.55
2024-04-23T00:13:53.370Z,49.75
2024-04-23T00:16:26.313Z,49.81
2024-04-23T00:18:59.191Z,49.91
2024-04-23T00:21:32.471Z,49.71
2024-04-23T00:24:05.707Z,49.88
2024-04-23T00:26:38.541Z,50.07
2024-04-23T00:29:13.438Z,49.81
2024-04-23T00:31:46.839Z,50.11
2024-04-23T00:34:20.017Z,49.99
2024-04-23T00:36:56.915Z,50.10
2024-04-23T00:39:30.213Z,49.88
2024-04-23T00:42:02.931Z,50.22
2024-04-23T00:44:35.429Z,50.35
2024-04-23T00:47:09.295Z,50.38
2024-04-23T00:49:42.816Z,50.44
2024-04-23T00:52:16.948Z,50.51
2024-04-23T00:54:50.367Z,50.62
2024-04-23T00:57:23.888Z,50.62
2024-04-23T00:59:56.932Z,50.63
2024-04-23T01:02:30.107Z,50.59
2024-04-23T01:05:03.530Z,50.70
2024-04-23T01:07:36.866Z,50.47
2024-04-23T01:10:10.794Z,50.48
2024-04-23T01:12:44.237Z,50.27
2024-04-23T01:15:17.499Z,50.23
2024-04-23T01:17:50.751Z,50.14
2024-04-23T01:20:24.321Z,50.04
2024-04-23T01:23:04.979Z,50.02
2024-04-23T01:25:38.493Z,49.78
2024-04-23T01:28:11.697Z,49.62
2024-04-23T01:30:45.235Z,49.36
2024-04-23T01:33:20.607Z,49.29
2024-04-23T01:35:53.888Z,49.47
2024-04-23T01:38:27.082Z,49.53
2024-04-23T01:40:59.952Z,49.63
2024-04-23T01:43:33.704Z,49.72
2024-04-23T01:46:06.625Z,49.67
2024-04-23T01:48:40.118Z,49.44
2024-04-23T01:51:13.392Z,49.44
2024-04-23T01:53:46.365Z,49.47
2024-04-23T01:56:19.194Z,49.44
2024-04-23T01:58:52.014Z,49.39
2024-04-23T02:01:25.705Z,49.53
2024-04-23T02:03:58.538Z,49.74
2024-04-23T02:06:32.188Z,49.70
2024-04-23T02:09:05.952Z,49.77
2024-04-23T02:11:39.297Z,49.90
2024-04-23T02:14:13.152Z,50.10
2024-04-23T02:16:46.018Z,50.26
2024-04-23T02:19:19.012Z,50.37
2024-04-23T02:21:51.960Z,50.44
2024-04-23T02:24:25.426Z,50.59
2024-04-23T02:26:58.234Z,50.56
2024-04-23T02:29:31.278Z,50.58
2024-04-23T02:32:05.115Z,50.57
2024-04-23T02:34:38.614Z,50.42
2024-04-23T02:37:12.183Z,50.42
2024-04-23T02:39:45.143Z,50.26
2024-04-23T02:42:18.170Z,50.15
2024-04-23T02:44:53.895Z,49.89
2024-04-23T02:47:27.165Z,49.74
2024-04-23T02:50:00.633Z,49.67
2024-04-23T02:52:36.499Z,49.56
2024-04-23T02:55:11.002Z,49.43
2024-04-23T02:57:43.793Z,49.02
2024-04-23T03:00:18.407Z,48.08
2024-04-23T03:02:51.401Z,46.00
2024-04-23T03:05:25.462Z,44.14
2024-04-23T03:07:59.467Z,42.22
2024-04-23T03:10:32.354Z,40.20
2024-04-23T03:13:06.972Z,38.18
2024-04-23T03:15:39.844Z,36.49
2024-04-23T03:18:13.518Z,34.93
2024-04-23T03:20:46.403Z,32.92
2024-04-23T03:23:19.692Z,31.10
2024-04-23T03:25:53.136Z,30.65
2024-04-23T03:28:26.121Z,29.47
2024-04-23T03:30:59.255Z,28.42
2024-04-23T03:33:33.700Z,27.28
2024-04-23T03:36:09.213Z,26.62
2024-04-23T03:38:41.999Z,25.28
2024-04-23T03:41:15.598Z,24.11
2024-04-23T03:43:50.762Z,23.13
2024-04-23T03:46:24.915Z,21.97
2024-04-23T03:48:57.467Z,21.27
2024-04-23T03:51:30.516Z,20.87
2024-04-23T03:54:03.066Z,20.67
2024-04-23T03:56:38.917Z,19.84
2024-04-23T03:59:12.943Z,19.15
2024-04-23T04:01:46.439Z,18.16
2024-04-23T04:04:36.754Z,17.37
2024-04-23T04:07:10.285Z,16.72
2024-04-23T04:09:44.051Z,16.19
2024-04-23T04:12:17.498Z,15.67
2024-04-23T04:14:50.924Z,15.43
2024-04-23T04:17:23.918Z,14.41
2024-04-23T04:19:56.917Z,14.01
2024-04-23T04:22:29.916Z,13.77
2024-04-23T04:25:02.974Z,13.93
2024-04-23T04:27:35.848Z,14.05
2024-04-23T04:30:11.579Z,13.78
2024-04-23T04:32:44.270Z,13.56
2024-04-23T04:35:17.378Z,13.42
2024-04-23T04:37:50.144Z,12.93
2024-04-23T04:40:23.079Z,12.61
2024-04-23T04:42:57.411Z,12.53
2024-04-23T04:45:30.506Z,12.50
2024-04-23T04:48:03.529Z,12.12
2024-04-23T04:50:36.687Z,11.09
2024-04-23T04:53:11.405Z,11.27
2024-04-23T04:55:44.518Z,10.32
2024-04-23T04:58:17.261Z,10.11
2024-04-23T05:00:50.042Z,10.00
2024-04-23T05:03:23.268Z,10.06
2024-04-23T05:05:58.369Z,9.68
2024-04-23T05:08:33.882Z,9.56
2024-04-23T05:11:07.009Z,9.52
2024-04-23T05:13:42.443Z,9.33
2024-04-23T05:16:15.285Z,8.84
2024-04-23T05:18:48.059Z,8.27
2024-04-23T05:21:21.088Z,8.11
2024-04-23T05:23:53.808Z,7.46
2024-04-23T05:26:26.688Z,7.24
2024-04-23T05:29:00.337Z,7.39
2024-04-23T05:31:51.471Z,7.18
2024-04-23T05:34:24.304Z,7.26
2024-04-23T05:36:57.067Z,7.63
2024-04-23T05:39:30.354Z,7.02
2024-04-23T05:42:03.072Z,6.76
2024-04-23T05:44:39.025Z,6.65
2024-04-23T05:47:11.940Z,5.83
2024-04-23T05:50:23.061Z,5.52
2024-04-23T05:53:34.438Z,5.68
2024-04-23T05:56:07.226Z,5.82
2024-04-23T05:58:39.987Z,6.15
2024-04-23T06:01:12.858Z,6.14
2024-04-23T06:03:45.539Z,6.04
2024-04-23T06:06:18.270Z,5.80
2024-04-23T06:08:51.044Z,5.63
2024-04-23T06:11:23.657Z,5.80
2024-04-23T06:14:09.337Z,5.57
2024-04-23T06:16:42.792Z,5.18
2024-04-23T06:19:15.598Z,4.90
2024-04-23T06:21:48.103Z,4.38
2024-04-23T06:24:20.814Z,4.42
2024-04-23T06:26:53.772Z,4.64
2024-04-23T06:29:26.472Z,4.94
2024-04-23T06:31:59.593Z,5.13
2024-04-23T06:34:32.370Z,5.40
2024-04-23T06:37:05.172Z,5.21
2024-04-23T06:39:38.582Z,5.05
2024-04-23T06:42:11.957Z,5.11
2024-04-23T06:44:44.899Z,5.06
2024-04-23T06:47:18.519Z,4.78
2024-04-23T06:49:51.511Z,4.55
2024-04-23T06:52:27.032Z,4.80
2024-04-23T06:55:02.653Z,5.03
2024-04-23T06:57:35.507Z,5.02
2024-04-23T07:00:10.442Z,5.09
2024-04-23T07:02:43.219Z,5.68
2024-04-23T07:05:16.255Z,6.34
2024-04-23T07:07:49.156Z,5.97
2024-04-23T07:10:22.063Z,6.07
2024-04-23T07:12:55.381Z,6.09
2024-04-23T07:15:28.383Z,6.42
2024-04-23T07:18:01.744Z,6.47
2024-04-23T07:20:36.699Z,5.96
2024-04-23T07:23:09.818Z,6.10
2024-04-23T07:25:42.568Z,6.31
2024-04-23T07:28:15.336Z,6.67
2024-04-23T07:30:48.266Z,7.01
2024-04-23T07:33:21.199Z,8.01
2024-04-23T07:35:54.207Z,8.85
2024-04-23T07:38:27.764Z,9.86
2024-04-23T07:41:01.875Z,11.10
2024-04-23T07:43:38.466Z,11.70
2024-04-23T07:46:12.325Z,12.46
2024-04-23T07:49:03.425Z,12.90
2024-04-23T07:51:37.089Z,13.91
2024-04-23T07:54:10.180Z,14.78
2024-04-23T07:56:44.732Z,14.71
2024-04-23T07:59:20.906Z,15.58
2024-04-23T08:01:55.256Z,15.86
2024-04-23T08:04:28.218Z,16.28
2024-04-23T08:07:00.781Z,16.67
2024-04-23T08:09:33.474Z,16.90
2024-04-23T08:12:10.539Z,17.48
2024-04-23T08:14:43.507Z,17.96
2024-04-23T08:17:20.947Z,17.88
2024-04-23T08:19:54.443Z,18.21
2024-04-23T08:22:28.229Z,18.06
2024-04-23T08:25:09.343Z,17.55
2024-04-23T08:27:42.275Z,17.47
2024-04-23T08:30:21.655Z,16.54
2024-04-23T08:32:54.941Z,15.42
2024-04-23T08:35:33.385Z,15.58
2024-04-23T08:38:06.245Z,15.28
2024-04-23T08:40:40.080Z,15.21
2024-04-23T08:43:22.179Z,15.38
2024-04-23T08:45:56.129Z,15.10
2024-04-23T08:48:37.689Z,14.86
2024-04-23T08:51:12.471Z,14.79
2024-04-23T08:53:46.394Z,14.83
2024-04-23T08:56:24.523Z,14.40
2024-04-23T08:58:57.325Z,14.74
2024-04-23T09:01:34.311Z,14.77
2024-04-23T09:04:07.755Z,14.66
2024-04-23T09:06:40.821Z,14.49
2024-04-23T09:09:17.081Z,14.30
2024-04-23T09:11:50.601Z,14.05
2024-04-23T09:14:23.654Z,14.30
2024-04-23T09:16:58.552Z,14.09
2024-04-23T09:19:34.539Z,14.13
2024-04-23T09:22:09.629Z,14.38
2024-04-23T09:24:42.731Z,13.98
2024-04-23T09:27:16.066Z,13.92
2024-04-23T09:29:48.937Z,14.00
2024-04-23T09:32:22.810Z,14.03
2024-04-23T09:35:02.410Z,13.72
2024-04-23T09:37:35.628Z,13.98
2024-04-23T09:40:10.365Z,13.88
2024-04-23T09:42:43.146Z,13.99
2024-04-23T09:45:18.477Z,13.69
2024-04-23T09:47:52.404Z,12.90
2024-04-23T09:50:30.162Z,12.79
2024-04-23T09:53:11.366Z,13.21
2024-04-23T09:55:44.747Z,13.53
2024-04-23T09:58:18.547Z,13.63
2024-04-23T10:00:51.928Z,13.33
2024-04-23T10:03:29.060Z,13.28
2024-04-23T10:06:05.949Z,13.59
2024-04-23T10:08:42.439Z,12.86
2024-04-23T10:11:13.627Z,12.80
2024-04-23T10:13:54.527Z,12.98
2024-04-23T10:16:31.307Z,13.05
2024-04-23T10:19:08.464Z,13.08
2024-04-23T10:21:43.587Z,12.45
2024-04-23T10:24:16.912Z,12.57
2024-04-23T10:26:50.215Z,12.62
2024-04-23T10:29:23.487Z,13.63
2024-04-23T10:31:56.213Z,13.02
2024-04-23T10:34:31.357Z,13.16
2024-04-23T10:37:06.914Z,12.57
2024-04-23T10:39:40.199Z,12.09
2024-04-23T10:42:14.281Z,12.72
2024-04-23T10:44:47.885Z,11.96
2024-04-23T10:47:20.901Z,11.98
2024-04-23T10:49:56.938Z,11.86
2024-04-23T10:52:28.454Z,11.42
2024-04-23T10:55:01.320Z,12.02
2024-04-23T10:57:34.880Z,11.62
2024-04-23T11:00:11.755Z,11.46
2024-04-23T11:02:44.633Z,11.47
2024-04-23T11:05:22.694Z,11.94
2024-04-23T11:07:56.287Z,12.62
2024-04-23T11:10:29.844Z,11.95
2024-04-23T11:13:06.965Z,12.00
2024-04-23T11:15:40.421Z,11.41
2024-04-23T11:18:25.132Z,11.49
2024-04-23T11:20:59.900Z,11.93
2024-04-23T11:23:34.453Z,11.33
2024-04-23T11:26:07.787Z,11.45
2024-04-23T11:28:41.792Z,12.18
2024-04-23T11:31:15.262Z,11.96
2024-04-23T11:33:49.023Z,12.54
2024-04-23T11:36:30.029Z,11.98
2024-04-23T11:39:09.199Z,11.77
2024-04-23T11:41:45.335Z,12.07
2024-04-23T11:44:19.265Z,12.69
2024-04-23T11:46:55.518Z,12.82
2024-04-23T11:49:30.251Z,12.16
2024-04-23T11:52:03.805Z,12.03
2024-04-23T11:54:38.730Z,11.76
2024-04-23T11:57:11.639Z,12.00
2024-04-23T11:59:45.473Z,11.52
2024-04-23T12:02:18.251Z,11.80
2024-04-23T12:04:51.389Z,11.37
2024-04-23T12:07:25.464Z,11.33
2024-04-23T12:10:05.199Z,11.48
2024-04-23T12:12:39.101Z,11.38
2024-04-23T12:15:12.612Z,12.00
2024-04-23T12:17:45.689Z,11.58
2024-04-23T12:20:19.101Z,11.02
2024-04-23T12:22:52.607Z,11.09
2024-04-23T12:25:26.509Z,11.08
2024-04-23T12:27:59.739Z,11.68
2024-04-23T12:30:35.073Z,11.15
2024-04-23T12:33:15.294Z,11.13
2024-04-23T12:35:48.599Z,11.18
2024-04-23T12:38:21.571Z,11.55
2024-04-23T12:40:56.629Z,11.40
2024-04-23T12:43:32.254Z,11.27
2024-04-23T12:46:06.357Z,11.03
2024-04-23T12:48:39.404Z,11.40
2024-04-23T12:51:13.304Z,11.20
2024-04-23T12:53:46.454Z,11.37
2024-04-23T12:56:19.703Z,11.57
2024-04-23T12:58:56.989Z,11.25
2024-04-23T13:01:39.049Z,10.66
2024-04-23T13:04:19.161Z,10.28
2024-04-23T13:06:52.161Z,10.15
2024-04-23T13:09:25.540Z,10.76
2024-04-23T13:12:01.008Z,11.29
2024-04-23T13:14:34.298Z,11.13
2024-04-23T13:17:08.039Z,11.72
2024-04-23T13:19:45.356Z,11.05
2024-04-23T13:22:23.428Z,10.73
2024-04-23T13:24:56.267Z,10.71
2024-04-23T13:27:29.135Z,11.41
2024-04-23T13:30:02.200Z,11.16
2024-04-23T13:32:38.460Z,11.64
2024-04-23T13:35:13.211Z,11.93
2024-04-23T13:37:46.748Z,11.79
2024-04-23T13:40:20.181Z,11.75
2024-04-23T13:42:53.229Z,11.91
2024-04-23T13:45:26.632Z,11.85
2024-04-23T13:48:01.029Z,11.90
2024-04-23T13:50:33.969Z,12.09
2024-04-23T13:53:08.350Z,12.03
2024-04-23T13:55:41.141Z,12.52
2024-04-23T13:58:14.231Z,12.48
2024-04-23T14:00:47.411Z,12.08
2024-04-23T14:03:21.160Z,12.37
2024-04-23T14:05:54.052Z,12.50
2024-04-23T14:08:27.088Z,12.50
2024-04-23T14:11:03.818Z,12.42
2024-04-23T14:13:38.205Z,12.69
2024-04-23T14:16:17.351Z,12.48
2024-04-23T14:18:50.599Z,12.30
2024-04-23T14:21:23.469Z,12.20
2024-04-23T14:23:56.662Z,12.22
2024-04-23T14:26:29.845Z,12.43
2024-04-23T14:29:06.084Z,11.94
2024-04-23T14:31:40.111Z,11.92
2024-04-23T14:34:13.213Z,12.30
2024-04-23T14:36:46.316Z,12.23
2024-04-23T14:39:19.466Z,12.19
2024-04-23T14:41:52.635Z,12.00
2024-04-23T14:44:26.178Z,12.31
2024-04-23T14:47:00.773Z,12.19
2024-04-23T14:49:33.817Z,12.87
2024-04-23T14:52:07.508Z,12.88
2024-04-23T14:54:40.544Z,12.73
2024-04-23T14:57:14.088Z,12.96
2024-04-23T14:59:49.422Z,13.08
2024-04-23T15:02:25.864Z,13.02
2024-04-23T15:04:59.266Z,12.97
2024-04-23T15:07:33.433Z,13.11
2024-04-23T15:10:07.544Z,12.98
2024-04-23T15:12:40.936Z,13.24
2024-04-23T15:15:14.322Z,13.61
2024-04-23T15:17:47.385Z,13.49
2024-04-23T15:20:20.730Z,14.46
2024-04-23T15:22:56.023Z,14.46
2024-04-23T15:25:30.166Z,14.79
2024-04-23T15:28:03.228Z,15.11
2024-04-23T15:30:36.145Z,15.03
2024-04-23T15:33:09.522Z,14.85
2024-04-23T15:35:42.059Z,14.98
2024-04-23T15:38:16.007Z,14.51
2024-04-23T15:40:48.954Z,15.22
2024-04-23T15:43:22.036Z,15.58
2024-04-23T15:45:55.479Z,15.71
2024-04-23T15:48:29.158Z,15.93
2024-04-23T15:51:02.344Z,15.41
2024-04-23T15:53:35.500Z,15.31
2024-04-23T15:56:12.618Z,15.43
2024-04-23T15:58:45.726Z,14.80
2024-04-23T16:01:18.868Z,14.85
2024-04-23T16:03:51.852Z,14.95
2024-04-23T16:06:26.086Z,14.97
2024-04-23T16:09:00.991Z,14.97
2024-04-23T16:11:35.163Z,15.12
2024-04-23T16:14:08.955Z,15.08
2024-04-23T16:16:41.599Z,15.68
2024-04-23T16:19:14.604Z,15.45
2024-04-23T16:21:47.352Z,15.76
2024-04-23T16:24:19.921Z,15.81
2024-04-23T16:26:53.007Z,15.73
2024-04-23T16:29:25.916Z,16.21
2024-04-23T16:31:58.695Z,16.45
2024-04-23T16:34:32.577Z,16.32
2024-04-23T16:37:05.777Z,16.60
2024-04-23T16:39:38.596Z,16.76
2024-04-23T16:42:11.930Z,16.65
2024-04-23T16:44:44.984Z,16.57
2024-04-23T16:47:18.429Z,16.95
2024-04-23T16:49:51.781Z,17.05
2024-04-23T16:52:24.497Z,17.36
2024-04-23T16:54:57.984Z,17.86
2024-04-23T16:57:31.623Z,18.00
2024-04-23T17:00:05.513Z,18.13
2024-04-23T17:02:38.730Z,18.71
2024-04-23T17:05:12.155Z,19.26
2024-04-23T17:07:45.337Z,19.48
2024-04-23T17:10:18.635Z,19.53
2024-04-23T17:12:52.037Z,19.67
2024-04-23T17:15:27.980Z,19.89
2024-04-23T17:18:01.228Z,20.09
2024-04-23T17:20:37.777Z,20.09
2024-04-23T17:23:10.947Z,20.15
2024-04-23T17:25:45.389Z,20.19
2024-04-23T17:28:19.607Z,19.99
2024-04-23T17:30:53.396Z,19.73
2024-04-23T17:33:29.524Z,19.76
2024-04-23T17:36:06.385Z,19.63
2024-04-23T17:38:41.743Z,19.88
2024-04-23T17:41:14.392Z,19.85
2024-04-23T17:43:47.347Z,19.80
2024-04-23T17:46:22.108Z,20.02
2024-04-23T17:48:55.672Z,20.06
2024-04-23T17:51:28.454Z,20.35
2024-04-23T17:54:01.879Z,20.43
2024-04-23T17:56:35.487Z,20.37
2024-04-23T17:59:09.249Z,20.07
2024-04-23T18:01:42.420Z,19.97
2024-04-23T18:04:15.898Z,19.90
2024-04-23T18:06:48.857Z,19.75
2024-04-23T18:09:21.950Z,19.63
2024-04-23T18:11:54.890Z,19.48
2024-04-23T18:14:27.729Z,19.55
2024-04-23T18:17:03.589Z,19.69
2024-04-23T18:19:36.435Z,19.74
2024-04-23T18:22:09.516Z,20.00
2024-04-23T18:24:42.526Z,20.25
2024-04-23T18:27:18.988Z,20.33
2024-04-23T18:29:52.188Z,20.47
2024-04-23T18:32:25.302Z,20.63
2024-04-23T18:34:58.315Z,20.77
2024-04-23T18:37:31.225Z,20.85
2024-04-23T18:40:04.087Z,20.98
2024-04-23T18:42:37.852Z,21.21
2024-04-23T18:45:11.610Z,21.08
2024-04-23T18:47:44.573Z,20.97
2024-04-23T18:50:18.141Z,20.76
2024-04-23T18:52:52.166Z,20.72
2024-04-23T18:55:30.338Z,20.58
2024-04-23T18:58:03.575Z,20.58
2024-04-23T19:00:36.682Z,20.70
2024-04-23T19:03:09.587Z,20.92
2024-04-23T19:05:42.660Z,21.02
2024-04-23T19:08:15.477Z,20.87
2024-04-23T19:10:48.606Z,21.01
2024-04-23T19:13:21.376Z,20.88
2024-04-23T19:15:53.871Z,21.09
2024-04-23T19:18:26.513Z,21.07
2024-04-23T19:21:01.699Z,20.94
2024-04-23T19:23:35.034Z,20.97
2024-04-23T19:26:08.685Z,21.11
2024-04-23T19:28:41.410Z,21.07
2024-04-23T19:31:14.636Z,21.00
2024-04-23T19:33:47.440Z,21.19
2024-04-23T19:36:20.249Z,21.19
2024-04-23T19:38:53.058Z,21.36
2024-04-23T19:41:25.831Z,21.43
2024-04-23T19:43:58.767Z,21.45
2024-04-23T19:46:33.909Z,21.67
2024-04-23T19:49:07.336Z,21.73
2024-04-23T19:51:40.419Z,21.94
2024-04-23T19:54:13.272Z,22.32
2024-04-23T19:56:59.938Z,22.23
2024-04-23T19:59:32.564Z,22.40
2024-04-23T20:02:05.808Z,22.46
2024-04-23T20:04:39.101Z,22.47
2024-04-23T20:07:12.087Z,22.55
2024-04-23T20:09:48.243Z,22.59
2024-04-23T20:12:21.277Z,22.82
2024-04-23T20:14:53.910Z,22.86
2024-04-23T20:17:26.969Z,23.02
2024-04-23T20:20:01.336Z,23.09
2024-04-23T20:22:34.518Z,23.09
2024-04-23T20:25:09.432Z,23.17
2024-04-23T20:27:42.746Z,23.41
2024-04-23T20:30:16.070Z,23.40
2024-04-23T20:32:49.199Z,23.54
2024-04-23T20:35:22.463Z,23.59
2024-04-23T20:37:55.219Z,23.70
2024-04-23T20:40:28.205Z,23.85
2024-04-23T20:43:00.761Z,23.90
2024-04-23T20:45:33.510Z,23.79
2024-04-23T20:48:08.039Z,23.91
2024-04-23T20:50:41.778Z,24.01
2024-04-23T20:53:14.578Z,24.20
2024-04-23T20:55:47.809Z,24.14
2024-04-23T20:58:22.163Z,24.57
2024-04-23T21:00:54.922Z,24.43
2024-04-23T21:03:27.671Z,24.44
2024-04-23T21:06:00.783Z,24.48
2024-04-23T21:08:33.733Z,24.39
2024-04-23T21:11:07.085Z,24.73
2024-04-23T21:13:40.080Z,25.41
2024-04-23T21:16:14.082Z,25.20
2024-04-23T21:18:48.890Z,25.23
2024-04-23T21:21:22.249Z,25.58
2024-04-23T21:23:54.933Z,25.81
2024-04-23T21:26:28.542Z,25.92
2024-04-23T21:29:01.687Z,26.07
2024-04-23T21:31:34.721Z,26.19
2024-04-23T21:34:08.785Z,26.51
2024-04-23T21:36:41.818Z,26.83
2024-04-23T21:39:14.852Z,26.92
2024-04-23T21:41:47.528Z,27.33
2024-04-23T21:44:20.923Z,27.56
2024-04-23T21:46:54.250Z,27.79
2024-04-23T21:49:28.021Z,27.96
2024-04-23T21:52:22.396Z,28.19
2024-04-23T21:54:55.995Z,28.47
2024-04-23T21:57:31.875Z,28.35
2024-04-23T22:00:06.407Z,28.55
2024-04-23T22:02:39.920Z,28.64
2024-04-23T22:05:14.182Z,28.70
2024-04-23T22:07:47.590Z,28.59
2024-04-23T22:10:23.210Z,28.45
2024-04-23T22:12:57.916Z,28.58
2024-04-23T22:15:38.070Z,28.99
2024-04-23T22:18:15.655Z,29.17
2024-04-23T22:20:48.657Z,29.16
2024-04-23T22:23:21.966Z,29.30
2024-04-23T22:25:55.316Z,29.41
2024-04-23T22:28:28.888Z,29.59
2024-04-23T22:31:04.991Z,29.82
2024-04-23T22:33:38.002Z,30.09
2024-04-23T22:36:11.710Z,30.41
2024-04-23T22:38:45.159Z,30.47
2024-04-23T22:41:18.308Z,30.89
2024-04-23T22:43:51.296Z,31.12
2024-04-23T22:46:24.236Z,31.15
2024-04-23T22:48:58.023Z,31.24
2024-04-23T22:51:31.124Z,31.67
2024-04-23T22:54:04.532Z,32.31
2024-04-23T22:56:37.500Z,32.81
2024-04-23T22:59:10.702Z,33.24
2024-04-23T23:01:44.615Z,33.96
2024-04-23T23:04:17.784Z,34.69
2024-04-23T23:06:50.851Z,34.83
2024-04-23T23:09:23.813Z,35.30
2024-04-23T23:11:57.220Z,35.61
2024-04-23T23:14:30.216Z,36.31
2024-04-23T23:17:03.443Z,36.37
2024-04-23T23:19:36.239Z,36.66
2024-04-23T23:22:09.063Z,36.92
2024-04-23T23:24:42.493Z,36.90
2024-04-23T23:27:15.923Z,37.00
2024-04-23T23:29:48.561Z,37.31
2024-04-23T23:32:21.619Z,37.37
2024-04-23T23:34:54.740Z,37.51
2024-04-23T23:37:27.525Z,37.97
2024-04-23T23:40:00.574Z,38.28
2024-04-23T23:42:33.562Z,38.69
2024-04-23T23:45:07.810Z,38.98
2024-04-23T23:47:41.165Z,39.19
2024-04-23T23:50:14.380Z,39.30
2024-04-23T23:52:47.369Z,39.46
2024-04-23T23:55:20.370Z,39.74
2024-04-23T23:57:54.602Z,39.86
